Time;durP1;ratioP1;P1;durP2;ratioP2;P2;SDS_P1;SDS_P2;PMS_P1;PMS_P2;Temp;Humidity;BMP_temperature;BMP_pressure;BME280_temperature;BME280_humidity;BME280_pressure;Samples;Min_cycle;Max_cycle;Signal;HPM_P1;HPM_P2
2022/03/06 00:00:14;;;;;;;;;;;1.20;99.90;;;;;;5094604;28;19908;-56
2022/03/06 00:02:40;;;;;;;;;;;1.20;99.90;;;;;;5093138;28;19923;-57
2022/03/06 00:05:06;;;;;;;;;;;1.20;99.90;;;;;;5095062;28;19909;-57
2022/03/06 00:07:31;;;;;;;;;;;1.10;99.90;;;;;;5094448;28;20015;-56
2022/03/06 00:09:57;;;;;;;;;;;1.10;99.90;;;;;;5095031;28;19908;-56
2022/03/06 00:12:22;;;;;;;;;;;1.10;99.90;;;;;;5094507;28;19908;-57
2022/03/06 00:14:48;;;;;;;;;;;1.00;99.90;;;;;;5094656;28;19940;-57
2022/03/06 00:17:14;;;;;;;;;;;1.00;99.90;;;;;;5094769;28;19908;-55
2022/03/06 00:19:39;;;;;;;;;;;1.00;99.90;;;;;;5094152;28;19908;-57
2022/03/06 00:22:04;;;;;;;;;;;0.90;99.90;;;;;;5086816;28;19919;-57
2022/03/06 00:24:30;;;;;;;;;;;1.00;99.90;;;;;;5074133;28;19917;-56
2022/03/06 00:26:55;;;;;;;;;;;0.90;99.90;;;;;;5073813;28;19915;-57
2022/03/06 00:29:21;;;;;;;;;;;1.00;99.90;;;;;;5074283;28;19919;-58
2022/03/06 00:31:46;;;;;;;;;;;1.00;99.90;;;;;;5073941;28;19920;-56
2022/03/06 00:34:12;;;;;;;;;;;1.00;99.90;;;;;;5073860;28;19908;-56
2022/03/06 00:36:37;;;;;;;;;;;1.00;99.90;;;;;;5074203;28;20298;-57
2022/03/06 00:39:06;;;;;;;;;;;1.00;99.90;;;;;;5074176;28;19930;-56
2022/03/06 00:41:31;;;;;;;;;;;1.00;99.90;;;;;;5078334;28;19916;-57
2022/03/06 00:43:57;;;;;;;;;;;1.00;99.90;;;;;;5094130;28;19916;-56
2022/03/06 00:46:22;;;;;;;;;;;1.00;99.90;;;;;;5094218;28;19908;-55
2022/03/06 00:48:48;;;;;;;;;;;1.00;99.90;;;;;;5093710;28;20281;-57
2022/03/06 00:51:14;;;;;;;;;;;1.10;99.90;;;;;;5092563;28;20026;-55
2022/03/06 00:53:39;;;;;;;;;;;1.10;99.90;;;;;;5093972;28;19951;-57
2022/03/06 00:56:05;;;;;;;;;;;1.10;99.90;;;;;;5085241;28;20000;-57
2022/03/06 00:58:31;;;;;;;;;;;1.10;99.90;;;;;;5093946;28;19926;-56
2022/03/06 01:00:56;;;;;;;;;;;1.10;99.90;;;;;;5094112;28;19912;-56
2022/03/06 01:03:22;;;;;;;;;;;1.10;99.90;;;;;;5093250;28;19969;-56
2022/03/06 01:05:47;;;;;;;;;;;1.10;99.90;;;;;;5093881;28;19912;-57
2022/03/06 01:08:13;;;;;;;;;;;1.10;99.90;;;;;;5093917;28;19909;-56
2022/03/06 01:10:40;;;;;;;;;;;1.10;99.90;;;;;;5089273;28;20007;-57
2022/03/06 01:13:07;;;;;;;;;;;1.10;99.90;;;;;;5073188;28;20366;-57
2022/03/06 01:15:32;;;;;;;;;;;1.10;99.90;;;;;;5073593;28;19908;-55
2022/03/06 01:17:58;;;;;;;;;;;1.10;99.90;;;;;;5073107;28;20370;-56
2022/03/06 01:20:24;;;;;;;;;;;1.10;99.90;;;;;;5073567;28;20310;-55
2022/03/06 01:22:50;;;;;;;;;;;1.00;99.90;;;;;;5072767;28;19927;-57
2022/03/06 01:25:15;;;;;;;;;;;1.10;99.90;;;;;;5073639;28;19908;-57
2022/03/06 01:27:41;;;;;;;;;;;1.00;99.90;;;;;;5073416;28;19917;-56
2022/03/06 01:30:08;;;;;;;;;;;1.00;99.90;;;;;;5073069;28;20061;-57
2022/03/06 01:32:33;;;;;;;;;;;1.10;99.90;;;;;;5073125;28;19920;-57
2022/03/06 01:34:59;;;;;;;;;;;1.10;99.90;;;;;;5073476;28;20325;-57
2022/03/06 01:37:25;;;;;;;;;;;1.10;99.90;;;;;;5072837;28;19908;-55
2022/03/06 01:39:50;;;;;;;;;;;1.10;99.90;;;;;;5073349;28;19991;-57
2022/03/06 01:42:16;;;;;;;;;;;1.10;99.90;;;;;;5074300;28;19999;-56
2022/03/06 01:44:44;;;;;;;;;;;1.10;99.90;;;;;;5072688;28;19924;-56
2022/03/06 01:47:09;;;;;;;;;;;1.10;99.90;;;;;;5073276;28;19915;-56
2022/03/06 01:49:34;;;;;;;;;;;1.10;99.90;;;;;;5073173;28;19995;-56
2022/03/06 01:52:00;;;;;;;;;;;1.10;99.90;;;;;;5072798;28;19913;-56
2022/03/06 01:54:25;;;;;;;;;;;1.20;99.90;;;;;;5073094;28;19909;-57
2022/03/06 01:56:51;;;;;;;;;;;1.20;99.90;;;;;;5073132;28;20396;-56
2022/03/06 01:59:16;;;;;;;;;;;1.20;99.90;;;;;;5072756;28;20370;-55
2022/03/06 02:01:42;;;;;;;;;;;1.20;99.90;;;;;;5073096;28;20250;-57
2022/03/06 02:04:07;;;;;;;;;;;1.20;99.90;;;;;;5073106;28;19931;-57
2022/03/06 02:06:33;;;;;;;;;;;1.20;99.90;;;;;;5072512;28;20439;-57
2022/03/06 02:08:59;;;;;;;;;;;1.30;99.90;;;;;;5073006;28;20004;-56
2022/03/06 02:11:24;;;;;;;;;;;1.30;99.90;;;;;;5084861;28;19948;-56
2022/03/06 02:13:50;;;;;;;;;;;1.30;99.90;;;;;;5092744;28;20350;-56
2022/03/06 02:16:15;;;;;;;;;;;1.40;99.90;;;;;;5093277;28;19916;-57
2022/03/06 02:18:41;;;;;;;;;;;1.40;99.90;;;;;;5092969;28;20256;-57
2022/03/06 02:21:07;;;;;;;;;;;1.40;99.90;;;;;;5092558;28;20415;-55
2022/03/06 02:23:33;;;;;;;;;;;1.50;99.90;;;;;;5092991;28;19981;-58
2022/03/06 02:25:58;;;;;;;;;;;1.50;99.90;;;;;;5096460;28;19908;-55
2022/03/06 02:28:24;;;;;;;;;;;1.50;99.90;;;;;;5096617;28;19997;-55
2022/03/06 02:30:49;;;;;;;;;;;1.50;99.90;;;;;;5096578;28;19920;-56
2022/03/06 02:33:15;;;;;;;;;;;1.50;99.90;;;;;;5096408;28;20385;-55
2022/03/06 02:35:41;;;;;;;;;;;1.50;99.90;;;;;;5096688;28;19911;-57
2022/03/06 02:38:06;;;;;;;;;;;1.60;99.90;;;;;;5096792;28;19908;-57
2022/03/06 02:40:37;;;;;;;;;;;1.60;99.90;;;;;;5091065;28;19913;-56
2022/03/06 02:43:03;;;;;;;;;;;1.50;99.90;;;;;;5085499;28;20010;-57
2022/03/06 02:45:28;;;;;;;;;;;1.60;99.90;;;;;;5079744;28;19948;-57
2022/03/06 02:47:55;;;;;;;;;;;1.60;99.90;;;;;;5075675;28;19954;-57
2022/03/06 02:50:22;;;;;;;;;;;1.50;99.90;;;;;;5076298;28;19908;-57
2022/03/06 02:52:48;;;;;;;;;;;1.60;99.90;;;;;;5076183;28;19908;-56
2022/03/06 02:55:15;;;;;;;;;;;1.60;99.90;;;;;;5075668;28;19908;-55
2022/03/06 02:57:40;;;;;;;;;;;1.60;99.90;;;;;;5076108;28;19908;-56
2022/03/06 03:00:08;;;;;;;;;;;1.50;99.90;;;;;;5076071;28;19969;-56
2022/03/06 03:02:34;;;;;;;;;;;1.60;99.90;;;;;;5075288;28;20324;-57
2022/03/06 03:04:59;;;;;;;;;;;1.50;99.90;;;;;;5083782;28;19912;-57
2022/03/06 03:07:25;;;;;;;;;;;1.50;99.90;;;;;;5096061;28;19960;-56
2022/03/06 03:09:50;;;;;;;;;;;1.50;99.90;;;;;;5093464;28;19986;-57
2022/03/06 03:12:16;;;;;;;;;;;1.50;99.90;;;;;;5096133;28;19908;-57
2022/03/06 03:14:41;;;;;;;;;;;1.40;99.90;;;;;;5096019;28;19987;-56
2022/03/06 03:17:07;;;;;;;;;;;1.40;99.90;;;;;;5095518;28;19912;-56
2022/03/06 03:19:32;;;;;;;;;;;1.30;99.90;;;;;;5095788;28;19954;-57
2022/03/06 03:21:58;;;;;;;;;;;1.30;99.90;;;;;;5095931;28;19908;-56
2022/03/06 03:24:24;;;;;;;;;;;1.20;99.90;;;;;;5089763;28;19921;-57
2022/03/06 03:26:49;;;;;;;;;;;1.10;99.90;;;;;;5075488;28;19914;-55
2022/03/06 03:29:15;;;;;;;;;;;1.10;99.90;;;;;;5075595;28;20432;-54
2022/03/06 03:31:40;;;;;;;;;;;1.10;99.90;;;;;;5074666;28;20395;-57
2022/03/06 03:34:05;;;;;;;;;;;1.00;99.90;;;;;;5075443;28;19908;-57
2022/03/06 03:36:31;;;;;;;;;;;1.00;99.90;;;;;;5074431;28;19912;-57
2022/03/06 03:38:56;;;;;;;;;;;1.00;99.90;;;;;;5075265;28;19912;-57
2022/03/06 03:41:23;;;;;;;;;;;0.90;99.90;;;;;;5075336;28;19938;-56
2022/03/06 03:43:49;;;;;;;;;;;0.90;99.90;;;;;;5074556;28;19959;-56
2022/03/06 03:46:15;;;;;;;;;;;0.90;99.90;;;;;;5075330;28;19965;-57
2022/03/06 03:48:40;;;;;;;;;;;0.80;99.90;;;;;;5075038;28;19916;-56
2022/03/06 03:51:05;;;;;;;;;;;0.80;99.90;;;;;;5074665;28;19932;-56
2022/03/06 03:53:31;;;;;;;;;;;0.80;99.90;;;;;;5074873;28;20436;-57
2022/03/06 03:55:56;;;;;;;;;;;0.80;99.90;;;;;;5076097;28;19919;-56
2022/03/06 03:58:22;;;;;;;;;;;0.80;99.90;;;;;;5074434;28;19961;-56
2022/03/06 04:00:57;;;;;;;;;;;0.80;99.90;;;;;;5074801;28;19962;-56
2022/03/06 04:03:22;;;;;;;;;;;0.80;99.90;;;;;;5074732;28;20361;-57
2022/03/06 04:05:48;;;;;;;;;;;0.80;99.90;;;;;;5074186;28;19913;-56
2022/03/06 04:08:14;;;;;;;;;;;0.80;99.90;;;;;;5074678;28;20378;-56
2022/03/06 04:10:39;;;;;;;;;;;0.80;99.90;;;;;;5074729;28;19915;-57
2022/03/06 04:13:05;;;;;;;;;;;0.80;99.90;;;;;;5074207;28;20356;-57
2022/03/06 04:15:30;;;;;;;;;;;0.70;99.90;;;;;;5074666;28;19909;-56
2022/03/06 04:17:56;;;;;;;;;;;0.70;99.90;;;;;;5074629;28;20355;-54
2022/03/06 04:20:21;;;;;;;;;;;0.70;99.90;;;;;;5073975;28;19920;-55
2022/03/06 04:22:47;;;;;;;;;;;0.70;99.90;;;;;;5074359;28;19921;-56
2022/03/06 04:25:12;;;;;;;;;;;0.70;99.90;;;;;;5075491;28;19920;-56
2022/03/06 04:27:38;;;;;;;;;;;0.60;99.90;;;;;;5073675;28;20343;-57
2022/03/06 04:30:04;;;;;;;;;;;0.60;99.90;;;;;;5074260;28;19915;-57
2022/03/06 04:32:30;;;;;;;;;;;0.60;99.90;;;;;;5073888;28;19965;-57
2022/03/06 04:34:55;;;;;;;;;;;0.60;99.90;;;;;;5073734;28;19991;-57
2022/03/06 04:37:20;;;;;;;;;;;0.60;99.90;;;;;;5074187;28;19912;-56
2022/03/06 04:39:46;;;;;;;;;;;0.60;99.90;;;;;;5073577;28;19920;-55
2022/03/06 04:42:11;;;;;;;;;;;0.60;99.90;;;;;;5074166;28;19919;-56
2022/03/06 04:44:37;;;;;;;;;;;0.60;99.90;;;;;;5073918;28;19916;-57
2022/03/06 04:47:03;;;;;;;;;;;0.60;99.90;;;;;;5072993;28;19908;-56
2022/03/06 04:49:28;;;;;;;;;;;0.60;99.90;;;;;;5073994;28;19908;-57
2022/03/06 04:51:54;;;;;;;;;;;0.60;99.90;;;;;;5073756;28;19908;-56
2022/03/06 04:54:20;;;;;;;;;;;0.60;99.90;;;;;;5079669;28;19965;-56
2022/03/06 04:56:46;;;;;;;;;;;0.60;99.90;;;;;;5094025;28;20419;-56
2022/03/06 04:59:11;;;;;;;;;;;0.60;99.90;;;;;;5094173;28;19955;-56
2022/03/06 05:01:37;;;;;;;;;;;0.50;99.90;;;;;;5093402;28;19914;-57
2022/03/06 05:04:03;;;;;;;;;;;0.60;99.90;;;;;;5091565;28;19974;-56
2022/03/06 05:06:28;;;;;;;;;;;0.60;99.90;;;;;;5093867;28;20015;-57
2022/03/06 05:08:54;;;;;;;;;;;0.60;99.90;;;;;;5093354;28;19908;-55
2022/03/06 05:11:19;;;;;;;;;;;0.60;99.90;;;;;;5094010;28;19930;-57
2022/03/06 05:13:45;;;;;;;;;;;0.60;99.90;;;;;;5093811;28;19915;-57
2022/03/06 05:16:10;;;;;;;;;;;0.60;99.90;;;;;;5093404;28;19915;-55
2022/03/06 05:18:36;;;;;;;;;;;0.60;99.90;;;;;;5093627;28;19914;-56
2022/03/06 05:21:01;;;;;;;;;;;0.60;99.90;;;;;;5093776;28;19997;-57
2022/03/06 05:23:26;;;;;;;;;;;0.70;99.90;;;;;;5093092;28;20397;-57
2022/03/06 05:25:54;;;;;;;;;;;0.70;99.90;;;;;;5074492;28;19920;-58
2022/03/06 05:28:20;;;;;;;;;;;0.60;99.90;;;;;;5073568;28;19909;-54
2022/03/06 05:30:45;;;;;;;;;;;0.70;99.90;;;;;;5072525;28;20007;-57
2022/03/06 05:33:11;;;;;;;;;;;0.60;99.90;;;;;;5073477;28;19908;-57
2022/03/06 05:35:36;;;;;;;;;;;0.60;99.90;;;;;;5073325;28;19908;-57
2022/03/06 05:38:02;;;;;;;;;;;0.60;99.90;;;;;;5073001;28;19908;-56
2022/03/06 05:40:27;;;;;;;;;;;0.60;99.90;;;;;;5073270;28;19916;-57
2022/03/06 05:42:52;;;;;;;;;;;0.60;99.90;;;;;;5073070;28;19920;-57
2022/03/06 05:45:18;;;;;;;;;;;0.60;99.90;;;;;;5072951;28;19919;-57
2022/03/06 05:47:43;;;;;;;;;;;0.60;99.90;;;;;;5073278;28;20271;-57
2022/03/06 05:50:09;;;;;;;;;;;0.60;99.90;;;;;;5072676;28;19908;-55
2022/03/06 05:52:35;;;;;;;;;;;0.60;99.90;;;;;;5073144;28;20256;-57
2022/03/06 05:55:00;;;;;;;;;;;0.60;99.90;;;;;;5086589;28;19916;-56
2022/03/06 05:57:25;;;;;;;;;;;0.50;99.90;;;;;;5092868;28;20251;-57
2022/03/06 05:59:52;;;;;;;;;;;0.50;99.90;;;;;;5096994;28;19977;-57
2022/03/06 06:02:19;;;;;;;;;;;0.50;99.90;;;;;;5097502;28;20009;-56
2022/03/06 06:04:45;;;;;;;;;;;0.50;99.90;;;;;;5096530;28;20077;-55
2022/03/06 06:07:10;;;;;;;;;;;0.40;99.90;;;;;;5097346;28;19965;-56
2022/03/06 06:09:36;;;;;;;;;;;0.40;99.90;;;;;;5097325;28;19916;-57
2022/03/06 06:12:02;;;;;;;;;;;0.40;99.90;;;;;;5096837;28;19908;-55
2022/03/06 06:14:27;;;;;;;;;;;0.40;99.90;;;;;;5085416;28;19919;-57
2022/03/06 06:16:53;;;;;;;;;;;0.40;99.90;;;;;;5076821;28;20298;-58
2022/03/06 06:19:18;;;;;;;;;;;0.50;99.90;;;;;;5076331;28;19931;-56
2022/03/06 06:21:44;;;;;;;;;;;0.50;99.90;;;;;;5076692;28;19920;-57
2022/03/06 06:24:13;;;;;;;;;;;0.50;99.90;;;;;;5076551;28;19920;-57
2022/03/06 06:26:39;;;;;;;;;;;0.50;99.90;;;;;;5076116;28;20255;-57
2022/03/06 06:29:04;;;;;;;;;;;0.50;99.90;;;;;;5076706;28;19939;-56
2022/03/06 06:31:30;;;;;;;;;;;0.50;99.90;;;;;;5076282;28;19921;-56
2022/03/06 06:33:55;;;;;;;;;;;0.50;99.90;;;;;;5084764;28;19912;-56
2022/03/06 06:36:23;;;;;;;;;;;0.50;99.90;;;;;;5096060;28;22267;-57
2022/03/06 06:38:48;;;;;;;;;;;0.50;99.90;;;;;;5096666;28;19987;-57
2022/03/06 06:41:14;;;;;;;;;;;0.60;99.90;;;;;;5096263;28;19935;-57
2022/03/06 06:43:40;;;;;;;;;;;0.60;99.90;;;;;;5096505;28;20267;-56
2022/03/06 06:46:05;;;;;;;;;;;0.70;99.90;;;;;;5096633;28;20003;-56
2022/03/06 06:48:31;;;;;;;;;;;0.80;99.90;;;;;;5095849;28;19908;-56
2022/03/06 06:50:56;;;;;;;;;;;0.90;99.90;;;;;;5096670;28;19908;-56
2022/03/06 06:53:21;;;;;;;;;;;0.90;99.90;;;;;;5088896;28;20338;-58
2022/03/06 06:55:47;;;;;;;;;;;1.00;99.90;;;;;;5076103;28;19936;-57
2022/03/06 06:58:12;;;;;;;;;;;1.00;99.90;;;;;;5076148;28;19912;-57
2022/03/06 07:00:38;;;;;;;;;;;1.10;99.90;;;;;;5075528;28;19912;-57
2022/03/06 07:03:03;;;;;;;;;;;1.10;99.90;;;;;;5075904;28;20267;-56
2022/03/06 07:05:29;;;;;;;;;;;1.20;99.90;;;;;;5075954;28;19931;-57
2022/03/06 07:07:54;;;;;;;;;;;1.20;99.90;;;;;;5075476;28;19915;-57
2022/03/06 07:10:20;;;;;;;;;;;1.30;99.90;;;;;;5075193;28;20363;-57
2022/03/06 07:12:47;;;;;;;;;;;1.30;99.90;;;;;;5079374;28;20012;-57
2022/03/06 07:15:13;;;;;;;;;;;1.40;99.90;;;;;;5095649;28;19932;-56
2022/03/06 07:17:39;;;;;;;;;;;1.40;99.90;;;;;;5095675;28;19908;-57
2022/03/06 07:20:05;;;;;;;;;;;1.40;99.90;;;;;;5093880;28;19964;-57
2022/03/06 07:22:31;;;;;;;;;;;1.40;99.90;;;;;;5095207;28;19908;-57
2022/03/06 07:24:56;;;;;;;;;;;1.40;99.90;;;;;;5095963;28;19920;-57
2022/03/06 07:27:22;;;;;;;;;;;1.40;99.90;;;;;;5095878;28;20439;-56
2022/03/06 07:29:47;;;;;;;;;;;1.40;99.90;;;;;;5095264;28;20317;-57
2022/03/06 07:32:13;;;;;;;;;;;1.40;99.90;;;;;;5093812;28;20010;-56
2022/03/06 07:34:38;;;;;;;;;;;1.50;99.90;;;;;;5075398;28;19919;-57
2022/03/06 07:37:04;;;;;;;;;;;1.50;99.90;;;;;;5074949;28;20343;-57
2022/03/06 07:39:30;;;;;;;;;;;1.50;99.90;;;;;;5075383;28;20359;-57
2022/03/06 07:41:55;;;;;;;;;;;1.50;99.90;;;;;;5075444;28;19916;-57
2022/03/06 07:44:21;;;;;;;;;;;1.50;99.90;;;;;;5074737;28;19969;-57
2022/03/06 07:46:46;;;;;;;;;;;1.50;99.90;;;;;;5088858;28;19962;-57
2022/03/06 07:49:12;;;;;;;;;;;1.50;99.90;;;;;;5095494;28;19999;-57
2022/03/06 07:51:37;;;;;;;;;;;1.60;99.90;;;;;;5094473;28;20387;-57
2022/03/06 07:54:03;;;;;;;;;;;1.70;99.90;;;;;;5093284;28;19966;-58
2022/03/06 07:56:28;;;;;;;;;;;1.70;99.90;;;;;;5095197;28;20003;-57
2022/03/06 07:58:54;;;;;;;;;;;1.80;99.90;;;;;;5094602;28;19908;-57
2022/03/06 08:01:20;;;;;;;;;;;1.90;99.90;;;;;;5094354;28;19908;-58
2022/03/06 08:03:45;;;;;;;;;;;1.90;99.90;;;;;;5093921;28;19953;-57
2022/03/06 08:06:11;;;;;;;;;;;1.90;99.90;;;;;;5094378;28;20367;-57
2022/03/06 08:08:36;;;;;;;;;;;2.00;99.90;;;;;;5081107;28;19909;-58
2022/03/06 08:11:02;;;;;;;;;;;2.10;99.90;;;;;;5113844;28;19925;-56
2022/03/06 08:13:27;;;;;;;;;;;2.10;99.90;;;;;;5105808;28;20362;-57
2022/03/06 08:15:52;;;;;;;;;;;2.20;99.90;;;;;;5094197;28;19962;-57
2022/03/06 08:18:18;;;;;;;;;;;2.30;99.90;;;;;;5093258;28;19916;-57
2022/03/06 08:20:44;;;;;;;;;;;2.40;99.90;;;;;;5094110;28;19908;-57
2022/03/06 08:23:09;;;;;;;;;;;2.40;99.90;;;;;;5092810;28;19912;-57
2022/03/06 08:25:35;;;;;;;;;;;2.50;99.90;;;;;;5081228;28;19967;-57
2022/03/06 08:28:00;;;;;;;;;;;2.60;99.90;;;;;;5088375;28;20008;-57
2022/03/06 08:30:26;;;;;;;;;;;2.70;99.90;;;;;;5093927;28;19977;-58
2022/03/06 08:32:51;;;;;;;;;;;2.70;99.90;;;;;;5093478;28;19927;-57
2022/03/06 08:35:16;;;;;;;;;;;2.80;99.90;;;;;;5093657;28;19915;-56
2022/03/06 08:37:42;;;;;;;;;;;2.90;99.90;;;;;;5093792;28;19919;-58
2022/03/06 08:40:08;;;;;;;;;;;2.90;99.90;;;;;;5093093;28;20360;-57
2022/03/06 08:42:34;;;;;;;;;;;3.00;99.90;;;;;;5093844;28;19908;-56
2022/03/06 08:44:59;;;;;;;;;;;3.10;99.90;;;;;;5093532;28;19923;-56
2022/03/06 08:47:25;;;;;;;;;;;3.20;99.90;;;;;;5092432;28;19955;-57
2022/03/06 08:49:50;;;;;;;;;;;3.20;99.90;;;;;;5092922;28;19916;-56
2022/03/06 08:52:16;;;;;;;;;;;3.30;99.90;;;;;;5091116;28;19997;-58
2022/03/06 08:54:41;;;;;;;;;;;3.50;99.90;;;;;;5092436;28;19912;-57
2022/03/06 08:57:06;;;;;;;;;;;3.50;99.90;;;;;;5092664;28;19908;-57
2022/03/06 08:59:32;;;;;;;;;;;3.60;99.90;;;;;;5091410;28;20366;-57
2022/03/06 09:01:57;;;;;;;;;;;3.70;99.90;;;;;;5092310;28;19923;-57
2022/03/06 09:04:23;;;;;;;;;;;3.70;99.90;;;;;;5092474;28;19916;-57
2022/03/06 09:06:49;;;;;;;;;;;3.80;99.90;;;;;;5092746;28;19912;-56
2022/03/06 09:09:15;;;;;;;;;;;3.90;99.90;;;;;;5089530;28;19908;-57
2022/03/06 09:11:40;;;;;;;;;;;4.00;99.90;;;;;;5093377;28;19912;-57
2022/03/06 09:14:07;;;;;;;;;;;4.10;99.90;;;;;;5092485;28;19916;-58
2022/03/06 09:16:32;;;;;;;;;;;4.10;99.90;;;;;;5093214;28;19916;-57
2022/03/06 09:18:58;;;;;;;;;;;4.30;99.90;;;;;;5093101;28;20255;-56
2022/03/06 09:21:23;;;;;;;;;;;4.30;99.30;;;;;;5092469;28;19929;-56
2022/03/06 09:23:49;;;;;;;;;;;4.40;99.90;;;;;;5092953;28;19957;-57
2022/03/06 09:26:14;;;;;;;;;;;4.40;99.20;;;;;;5092840;28;19953;-58
2022/03/06 09:28:39;;;;;;;;;;;4.50;97.70;;;;;;5089825;28;19908;-56
2022/03/06 09:31:05;;;;;;;;;;;4.50;99.90;;;;;;5091831;28;19927;-55
2022/03/06 09:33:30;;;;;;;;;;;4.60;96.40;;;;;;5095997;28;19912;-56
2022/03/06 09:35:56;;;;;;;;;;;4.70;99.90;;;;;;5094706;28;19923;-57
2022/03/06 09:38:21;;;;;;;;;;;4.80;90.50;;;;;;5092075;28;19908;-57
2022/03/06 09:40:47;;;;;;;;;;;4.80;99.30;;;;;;5092239;28;19908;-57
2022/03/06 09:43:16;;;;;;;;;;;4.80;93.30;;;;;;5091524;28;20028;-56
2022/03/06 09:45:42;;;;;;;;;;;4.90;94.80;;;;;;5085497;28;19955;-57
2022/03/06 09:48:08;;;;;;;;;;;4.90;89.00;;;;;;5091318;28;19912;-56
2022/03/06 09:50:34;;;;;;;;;;;4.90;87.30;;;;;;5091377;28;19912;-57
2022/03/06 09:52:59;;;;;;;;;;;5.00;88.60;;;;;;5091986;28;19965;-57
2022/03/06 09:55:26;;;;;;;;;;;4.90;78.60;;;;;;5089900;28;20557;-56
2022/03/06 09:57:55;;;;;;;;;;;4.90;79.80;;;;;;5090581;28;19912;-57
2022/03/06 10:00:21;;;;;;;;;;;5.00;89.90;;;;;;5091809;28;19916;-57
2022/03/06 10:02:53;;;;;;;;;;;5.10;90.40;;;;;;5091736;28;19908;-57
2022/03/06 10:05:38;;;;;;;;;;;5.20;86.40;;;;;;5090762;28;19909;-57
2022/03/06 10:08:17;;;;;;;;;;;5.20;72.70;;;;;;5091503;28;19983;-57
2022/03/06 10:10:43;;;;;;;;;;;5.20;73.30;;;;;;5086660;28;19919;-56
2022/03/06 10:13:29;;;;;;;;;;;5.20;72.20;;;;;;5091562;28;19971;-57
2022/03/06 10:16:00;;;;;;;;;;;5.40;83.40;;;;;;5091389;28;20423;-57
2022/03/06 10:18:29;;;;;;;;;;;5.40;74.80;;;;;;5091021;28;19908;-57
2022/03/06 10:20:59;;;;;;;;;;;5.50;74.90;;;;;;5091555;28;19908;-57
2022/03/06 10:23:25;;;;;;;;;;;5.60;77.30;;;;;;5091409;28;19916;-56
2022/03/06 10:26:09;;;;;;;;;;;5.60;70.90;;;;;;5090798;28;19947;-57
2022/03/06 10:28:54;;;;;;;;;;;5.70;75.20;;;;;;5088523;28;19912;-57
2022/03/06 10:31:20;;;;;;;;;;;5.80;80.40;;;;;;5090428;28;19920;-58
2022/03/06 10:33:58;;;;;;;;;;;5.80;77.90;;;;;;5091386;28;19915;-55
2022/03/06 10:36:36;;;;;;;;;;;5.90;81.90;;;;;;5090492;28;20006;-57
2022/03/06 10:39:02;;;;;;;;;;;5.80;69.30;;;;;;5090646;28;19919;-58
2022/03/06 10:41:35;;;;;;;;;;;5.90;68.70;;;;;;5091387;28;19965;-56
2022/03/06 10:44:01;;;;;;;;;;;5.90;70.30;;;;;;5090758;28;20398;-57
2022/03/06 10:46:26;;;;;;;;;;;6.00;82.90;;;;;;5093972;28;19916;-56
2022/03/06 10:48:56;;;;;;;;;;;6.10;72.00;;;;;;5094952;28;19969;-56
2022/03/06 10:51:22;;;;;;;;;;;6.10;79.70;;;;;;5095100;28;19912;-57
2022/03/06 10:53:55;;;;;;;;;;;6.20;77.40;;;;;;5094415;28;19908;-55
2022/03/06 10:56:21;;;;;;;;;;;6.10;70.80;;;;;;5094438;28;19915;-56
2022/03/06 10:58:47;;;;;;;;;;;6.20;72.10;;;;;;5093838;28;19916;-56
2022/03/06 11:01:13;;;;;;;;;;;6.30;67.10;;;;;;5094174;28;20383;-57
2022/03/06 11:03:39;;;;;;;;;;;6.40;71.10;;;;;;5095075;28;19954;-55
2022/03/06 11:06:05;;;;;;;;;;;6.60;77.30;;;;;;5094227;28;20499;-57
2022/03/06 11:08:31;;;;;;;;;;;6.80;78.20;;;;;;5094117;28;19913;-57
2022/03/06 11:10:57;;;;;;;;;;;6.80;69.00;;;;;;5094384;28;19908;-57
2022/03/06 11:13:22;;;;;;;;;;;6.80;70.30;;;;;;5094458;28;19908;-57
2022/03/06 11:15:48;;;;;;;;;;;6.80;70.40;;;;;;5093923;28;20003;-56
2022/03/06 11:18:13;;;;;;;;;;;6.80;70.10;;;;;;5094216;28;19912;-57
2022/03/06 11:20:39;;;;;;;;;;;6.70;68.90;;;;;;5094005;28;19916;-57
2022/03/06 11:23:05;;;;;;;;;;;6.80;71.00;;;;;;5094068;28;19916;-56
2022/03/06 11:25:31;;;;;;;;;;;6.90;72.80;;;;;;5082245;28;19913;-57
2022/03/06 11:28:20;;;;;;;;;;;6.90;76.80;;;;;;5102394;28;19911;-58
2022/03/06 11:30:45;;;;;;;;;;;7.00;75.70;;;;;;5097561;28;19989;-57
2022/03/06 11:33:11;;;;;;;;;;;7.00;72.70;;;;;;5087124;28;20351;-57
2022/03/06 11:35:38;;;;;;;;;;;7.00;75.30;;;;;;5093067;28;19923;-57
2022/03/06 11:38:04;;;;;;;;;;;7.00;71.20;;;;;;5093159;28;19912;-57
2022/03/06 11:40:33;;;;;;;;;;;6.90;69.80;;;;;;5090194;28;19970;-57
2022/03/06 11:42:58;;;;;;;;;;;7.00;72.40;;;;;;5092752;28;19946;-57
2022/03/06 11:45:42;;;;;;;;;;;7.20;76.20;;;;;;5092898;28;20274;-57
2022/03/06 11:48:08;;;;;;;;;;;7.20;76.80;;;;;;5093145;28;20015;-57
2022/03/06 11:50:35;;;;;;;;;;;7.20;75.00;;;;;;5092798;28;19999;-56
2022/03/06 11:53:18;;;;;;;;;;;7.30;72.80;;;;;;5093157;28;19908;-58
2022/03/06 11:55:43;;;;;;;;;;;7.20;64.90;;;;;;5091287;28;19912;-57
2022/03/06 11:58:09;;;;;;;;;;;7.30;68.20;;;;;;5092734;28;20338;-56
2022/03/06 12:00:36;;;;;;;;;;;7.40;74.50;;;;;;5093126;28;19912;-56
2022/03/06 12:03:02;;;;;;;;;;;7.40;75.20;;;;;;5089464;28;19916;-55
2022/03/06 12:05:45;;;;;;;;;;;7.30;64.00;;;;;;5090697;28;20389;-56
2022/03/06 12:08:12;;;;;;;;;;;7.40;65.00;;;;;;5090415;28;20032;-57
2022/03/06 12:10:40;;;;;;;;;;;7.40;67.30;;;;;;5092727;28;19916;-57
2022/03/06 12:13:22;;;;;;;;;;;7.50;65.70;;;;;;5093354;28;19977;-56
2022/03/06 12:16:04;;;;;;;;;;;7.60;71.00;;;;;;5091307;28;19908;-57
2022/03/06 12:18:29;;;;;;;;;;;7.60;67.70;;;;;;5091442;28;19967;-56
2022/03/06 12:20:55;;;;;;;;;;;7.50;63.00;;;;;;5093677;28;19913;-56
2022/03/06 12:23:22;;;;;;;;;;;7.70;67.40;;;;;;5093109;28;19920;-57
2022/03/06 12:25:55;;;;;;;;;;;7.80;69.60;;;;;;5090675;28;20554;-56
2022/03/06 12:28:21;;;;;;;;;;;8.00;67.70;;;;;;5093051;28;19912;-57
2022/03/06 12:30:47;;;;;;;;;;;8.00;65.40;;;;;;5093258;28;20532;-56
2022/03/06 12:33:30;;;;;;;;;;;8.20;71.00;;;;;;5092544;28;19987;-57
2022/03/06 12:36:13;;;;;;;;;;;8.30;64.20;;;;;;5092555;28;19998;-56
2022/03/06 12:38:38;;;;;;;;;;;8.40;68.20;;;;;;5092160;28;19976;-57
2022/03/06 12:41:05;;;;;;;;;;;8.50;68.70;;;;;;5092970;28;19908;-57
2022/03/06 12:43:31;;;;;;;;;;;8.50;61.50;;;;;;5093266;28;19916;-56
2022/03/06 12:45:58;;;;;;;;;;;8.50;65.00;;;;;;5087983;28;20446;-57
2022/03/06 12:48:23;;;;;;;;;;;8.50;69.40;;;;;;5090980;28;19920;-57
2022/03/06 12:50:49;;;;;;;;;;;8.50;69.70;;;;;;5092879;28;20370;-56
2022/03/06 12:53:15;;;;;;;;;;;8.50;69.30;;;;;;5091651;28;19908;-57
2022/03/06 12:55:41;;;;;;;;;;;8.60;75.60;;;;;;5091781;28;19912;-56
2022/03/06 12:58:06;;;;;;;;;;;8.60;72.20;;;;;;5092683;28;19909;-56
2022/03/06 13:00:32;;;;;;;;;;;8.50;76.60;;;;;;5092380;28;19951;-56
2022/03/06 13:03:05;;;;;;;;;;;8.50;74.30;;;;;;5089597;28;19912;-57
2022/03/06 13:05:32;;;;;;;;;;;8.70;76.40;;;;;;5080348;28;19926;-57
2022/03/06 13:07:57;;;;;;;;;;;8.80;71.00;;;;;;5091483;28;19953;-56
2022/03/06 13:10:23;;;;;;;;;;;8.50;65.00;;;;;;5091940;28;19916;-55
2022/03/06 13:12:51;;;;;;;;;;;8.40;68.70;;;;;;5092571;28;19912;-57
2022/03/06 13:15:17;;;;;;;;;;;8.30;69.30;;;;;;5091381;28;20384;-57
2022/03/06 13:17:44;;;;;;;;;;;8.50;70.60;;;;;;5092666;28;19934;-56
2022/03/06 13:20:11;;;;;;;;;;;8.50;63.80;;;;;;5085637;28;19912;-55
2022/03/06 13:22:36;;;;;;;;;;;8.80;64.30;;;;;;5077488;28;19965;-57
2022/03/06 13:25:03;;;;;;;;;;;9.00;68.60;;;;;;5082900;28;19928;-57
2022/03/06 13:27:28;;;;;;;;;;;9.00;63.10;;;;;;5089054;28;19923;-57
2022/03/06 13:30:02;;;;;;;;;;;9.00;63.10;;;;;;5092278;28;19908;-56
2022/03/06 13:32:29;;;;;;;;;;;9.00;66.10;;;;;;5089092;28;20417;-57
2022/03/06 13:34:54;;;;;;;;;;;9.40;64.80;;;;;;5091179;28;19920;-57
2022/03/06 13:37:30;;;;;;;;;;;9.90;62.50;;;;;;5092304;28;19916;-57
2022/03/06 13:39:55;;;;;;;;;;;10.20;63.00;;;;;;5082388;28;19920;-56
2022/03/06 13:42:41;;;;;;;;;;;10.40;58.70;;;;;;5071933;28;19913;-56
2022/03/06 13:45:09;;;;;;;;;;;10.20;63.10;;;;;;5072125;28;19924;-57
2022/03/06 13:47:39;;;;;;;;;;;9.80;63.20;;;;;;5072702;28;19948;-56
2022/03/06 13:50:05;;;;;;;;;;;9.50;65.40;;;;;;5081650;28;20400;-56
2022/03/06 13:52:32;;;;;;;;;;;9.30;66.00;;;;;;5092817;28;20393;-55
2022/03/06 13:55:04;;;;;;;;;;;9.10;68.90;;;;;;5092886;28;20024;-56
2022/03/06 13:57:30;;;;;;;;;;;9.00;68.70;;;;;;5086320;28;19958;-56
2022/03/06 13:59:55;;;;;;;;;;;8.80;73.20;;;;;;5072629;28;19913;-57
2022/03/06 14:02:24;;;;;;;;;;;8.60;74.60;;;;;;5053754;28;19962;-57
2022/03/06 14:04:50;;;;;;;;;;;8.40;80.40;;;;;;5072526;28;19928;-57
2022/03/06 14:07:15;;;;;;;;;;;8.20;79.00;;;;;;5075339;28;19913;-57
2022/03/06 14:09:45;;;;;;;;;;;8.30;85.60;;;;;;5092305;28;20070;-56
2022/03/06 14:12:12;;;;;;;;;;;8.70;90.80;;;;;;5092256;28;19915;-56
2022/03/06 14:14:39;;;;;;;;;;;9.40;85.50;;;;;;5092744;28;19915;-56
2022/03/06 14:17:06;;;;;;;;;;;9.50;64.40;;;;;;5087539;28;19948;-57
2022/03/06 14:19:31;;;;;;;;;;;9.80;70.10;;;;;;5082068;28;19948;-57
2022/03/06 14:21:57;;;;;;;;;;;9.90;73.70;;;;;;5096567;28;20313;-56
2022/03/06 14:24:22;;;;;;;;;;;9.90;69.80;;;;;;5095458;28;20389;-56
2022/03/06 14:26:50;;;;;;;;;;;10.00;73.00;;;;;;5094577;28;19999;-56